Time;durP1;ratioP1;P1;durP2;ratioP2;P2;SDS_P1;SDS_P2;PMS_P1;PMS_P2;Temp;Humidity;BMP_temperature;BMP_pressure;BME280_temperature;BME280_humidity;BME280_pressure;Samples;Min_cycle;Max_cycle;Signal;HPM_P1;HPM_P2
2023/12/08 00:02:12;;;;;;;11.57;3.33;;;;;;;;;;5062827;28;20032;-71
2023/12/08 00:04:41;;;;;;;7.50;2.72;;;;;;;;;;5057503;28;20491;-69
2023/12/08 00:07:07;;;;;;;12.70;2.67;;;;;;;;;;5061450;28;20037;-69
2023/12/08 00:09:33;;;;;;;5.75;3.08;;;;;;;;;;5063485;28;20845;-70
2023/12/08 00:12:01;;;;;;;8.25;2.70;;;;;;;;;;5053878;28;20024;-69
2023/12/08 00:14:28;;;;;;;10.68;2.90;;;;;;;;;;5061901;28;20025;-69
2023/12/08 00:16:54;;;;;;;11.55;3.35;;;;;;;;;;5051566;28;20504;-70
2023/12/08 00:19:20;;;;;;;6.88;2.83;;;;;;;;;;5056468;28;20025;-69
2023/12/08 00:21:46;;;;;;;9.43;3.42;;;;;;;;;;5070308;28;20081;-69
2023/12/08 00:24:12;;;;;;;11.20;3.03;;;;;;;;;;5062230;28;20016;-69
2023/12/08 00:26:38;;;;;;;8.20;2.75;;;;;;;;;;5075374;28;20119;-69
2023/12/08 00:29:08;;;;;;;13.88;2.85;;;;;;;;;;5060971;28;20503;-69
2023/12/08 00:31:34;;;;;;;6.25;3.35;;;;;;;;;;5062448;28;20029;-69
2023/12/08 00:34:00;;;;;;;9.15;2.80;;;;;;;;;;5061945;28;20028;-68
2023/12/08 00:36:26;;;;;;;9.48;3.63;;;;;;;;;;5065925;28;20035;-69
2023/12/08 00:38:54;;;;;;;12.95;3.88;;;;;;;;;;5061665;28;20024;-69
2023/12/08 00:41:20;;;;;;;11.18;3.22;;;;;;;;;;5060939;28;20388;-69
2023/12/08 00:43:46;;;;;;;10.45;2.53;;;;;;;;;;5064064;28;20259;-69
2023/12/08 00:46:16;;;;;;;14.15;3.53;;;;;;;;;;5058083;28;20470;-69
2023/12/08 00:48:42;;;;;;;3.22;2.28;;;;;;;;;;5063532;28;20028;-70
2023/12/08 00:51:08;;;;;;;12.27;2.47;;;;;;;;;;5059089;28;20166;-70
2023/12/08 00:53:35;;;;;;;9.45;3.05;;;;;;;;;;5065767;28;20028;-70
2023/12/08 00:56:01;;;;;;;5.82;3.50;;;;;;;;;;5077449;28;20044;-69
2023/12/08 00:58:27;;;;;;;3.90;2.38;;;;;;;;;;5066979;28;20558;-70
2023/12/08 01:00:53;;;;;;;11.55;3.30;;;;;;;;;;5061940;28;20036;-69
2023/12/08 01:03:20;;;;;;;12.23;3.28;;;;;;;;;;5064059;28;20021;-69
2023/12/08 01:05:46;;;;;;;12.70;2.92;;;;;;;;;;5062234;28;20047;-69
2023/12/08 01:08:12;;;;;;;5.97;2.30;;;;;;;;;;5064309;28;20024;-69
2023/12/08 01:10:38;;;;;;;9.77;2.85;;;;;;;;;;5058455;28;20032;-69
2023/12/08 01:13:05;;;;;;;7.50;2.65;;;;;;;;;;5060518;28;20111;-70
2023/12/08 01:15:31;;;;;;;12.70;3.90;;;;;;;;;;5062060;28;20039;-70
2023/12/08 01:17:57;;;;;;;7.10;2.70;;;;;;;;;;5063365;28;20033;-69
2023/12/08 01:20:23;;;;;;;5.20;2.58;;;;;;;;;;5064685;28;20024;-70
2023/12/08 01:22:49;;;;;;;14.77;3.78;;;;;;;;;;5057867;28;20032;-69
2023/12/08 01:25:16;;;;;;;13.63;2.80;;;;;;;;;;5063467;28;21189;-69
2023/12/08 01:27:42;;;;;;;6.85;2.20;;;;;;;;;;5055968;28;20029;-69
2023/12/08 01:30:08;;;;;;;9.93;2.65;;;;;;;;;;5061681;28;20483;-69
2023/12/08 01:32:34;;;;;;;11.55;2.55;;;;;;;;;;5077072;28;20147;-69
2023/12/08 01:35:01;;;;;;;5.55;2.60;;;;;;;;;;5060998;28;20028;-69
2023/12/08 01:37:27;;;;;;;20.60;3.97;;;;;;;;;;5063826;28;20017;-70
2023/12/08 01:39:53;;;;;;;7.10;2.70;;;;;;;;;;5061401;28;20033;-69
2023/12/08 01:42:19;;;;;;;14.05;4.47;;;;;;;;;;5067592;28;20036;-70
2023/12/08 01:44:46;;;;;;;8.32;3.00;;;;;;;;;;5064463;28;20067;-69
2023/12/08 01:47:13;;;;;;;12.25;2.85;;;;;;;;;;5063465;28;20459;-69
2023/12/08 01:49:39;;;;;;;8.50;3.08;;;;;;;;;;5056520;28;20033;-69
2023/12/08 01:52:07;;;;;;;7.18;2.65;;;;;;;;;;5058358;28;20026;-69
2023/12/08 01:54:34;;;;;;;10.35;2.20;;;;;;;;;;5065584;28;20033;-69
2023/12/08 01:57:01;;;;;;;5.10;2.35;;;;;;;;;;5063423;28;20024;-70
2023/12/08 01:59:27;;;;;;;13.27;3.95;;;;;;;;;;5062789;28;20490;-69
2023/12/08 02:01:54;;;;;;;8.57;2.83;;;;;;;;;;5061657;28;20463;-71
2023/12/08 02:04:21;;;;;;;8.38;2.47;;;;;;;;;;5060305;28;20103;-69
2023/12/08 02:06:47;;;;;;;10.13;2.90;;;;;;;;;;5062732;28;20028;-69
2023/12/08 02:09:13;;;;;;;3.95;1.90;;;;;;;;;;5064722;28;20085;-69
2023/12/08 02:11:40;;;;;;;17.75;3.38;;;;;;;;;;5060386;28;20020;-69
2023/12/08 02:14:06;;;;;;;7.57;2.88;;;;;;;;;;5062740;28;20563;-69
2023/12/08 02:16:44;;;;;;;8.35;2.67;;;;;;;;;;5076724;28;20060;-69
2023/12/08 02:19:13;;;;;;;20.90;3.70;;;;;;;;;;5059850;28;20079;-69
2023/12/08 02:21:40;;;;;;;8.38;4.70;;;;;;;;;;5059472;28;20335;-69
2023/12/08 02:24:06;;;;;;;9.50;3.05;;;;;;;;;;5061160;28;20055;-70
2023/12/08 02:26:32;;;;;;;9.50;2.95;;;;;;;;;;5060394;28;20047;-71
2023/12/08 02:28:59;;;;;;;11.40;3.05;;;;;;;;;;5060431;28;20033;-69
2023/12/08 02:31:27;;;;;;;10.50;3.63;;;;;;;;;;5060813;28;20025;-69
2023/12/08 02:33:54;;;;;;;8.27;3.15;;;;;;;;;;5071420;28;20021;-69
2023/12/08 02:36:21;;;;;;;12.93;2.70;;;;;;;;;;5061323;28;20124;-69
2023/12/08 02:38:48;;;;;;;13.48;2.40;;;;;;;;;;5060588;28;20547;-68
2023/12/08 02:41:14;;;;;;;10.70;2.47;;;;;;;;;;5060058;28;20017;-69
2023/12/08 02:43:40;;;;;;;13.82;3.20;;;;;;;;;;5063282;28;20026;-70
2023/12/08 02:46:07;;;;;;;13.70;3.17;;;;;;;;;;5054508;28;20136;-69
2023/12/08 02:48:33;;;;;;;10.50;2.85;;;;;;;;;;5054054;28;20056;-69
2023/12/08 02:50:59;;;;;;;13.35;3.85;;;;;;;;;;5073836;28;20472;-69
2023/12/08 02:53:25;;;;;;;9.10;2.67;;;;;;;;;;5062230;28;20036;-69
2023/12/08 02:55:51;;;;;;;12.85;2.85;;;;;;;;;;5060611;28;20056;-68
2023/12/08 02:58:17;;;;;;;13.02;2.70;;;;;;;;;;5062064;28;20043;-69
2023/12/08 03:00:44;;;;;;;9.90;2.78;;;;;;;;;;5061554;28;20416;-69
2023/12/08 03:03:10;;;;;;;7.57;2.22;;;;;;;;;;5062305;28;20085;-69
2023/12/08 03:05:36;;;;;;;8.77;2.70;;;;;;;;;;5057192;28;20128;-69
2023/12/08 03:08:02;;;;;;;9.95;3.13;;;;;;;;;;5074164;28;20025;-69
2023/12/08 03:10:28;;;;;;;8.98;3.00;;;;;;;;;;5058972;28;20058;-69
2023/12/08 03:12:54;;;;;;;6.97;2.30;;;;;;;;;;5053937;28;20090;-69
2023/12/08 03:15:21;;;;;;;9.13;3.47;;;;;;;;;;5056678;28;20025;-69
2023/12/08 03:17:47;;;;;;;8.35;2.72;;;;;;;;;;5064283;28;20396;-68
2023/12/08 03:20:13;;;;;;;5.40;3.22;;;;;;;;;;5057743;28;20035;-69
2023/12/08 03:22:39;;;;;;;8.90;3.28;;;;;;;;;;5064209;28;20366;-69
2023/12/08 03:25:05;;;;;;;9.55;2.47;;;;;;;;;;5052920;28;20056;-69
2023/12/08 03:27:32;;;;;;;13.30;2.00;;;;;;;;;;5056889;28;20569;-69
2023/12/08 03:29:58;;;;;;;6.78;2.58;;;;;;;;;;5058760;28;20139;-69
2023/12/08 03:32:24;;;;;;;9.63;2.65;;;;;;;;;;5059278;28;20111;-69
2023/12/08 03:34:50;;;;;;;7.65;2.50;;;;;;;;;;5056017;28;20528;-69
2023/12/08 03:37:17;;;;;;;14.13;2.33;;;;;;;;;;5051291;28;20401;-69
2023/12/08 03:39:44;;;;;;;6.88;2.70;;;;;;;;;;5062374;28;20031;-69
2023/12/08 03:42:11;;;;;;;12.25;2.83;;;;;;;;;;5063264;28;20082;-68
2023/12/08 03:44:37;;;;;;;11.75;2.65;;;;;;;;;;5056038;28;20044;-68
2023/12/08 03:47:03;;;;;;;6.28;2.40;;;;;;;;;;5061135;28;20029;-68
2023/12/08 03:49:29;;;;;;;4.00;2.60;;;;;;;;;;5061772;28;20028;-68
2023/12/08 03:51:55;;;;;;;6.07;2.25;;;;;;;;;;5054733;28;20047;-69
2023/12/08 03:54:21;;;;;;;10.27;3.50;;;;;;;;;;5060588;28;20021;-68
2023/12/08 03:56:47;;;;;;;11.93;2.45;;;;;;;;;;5061788;28;20761;-68
2023/12/08 03:59:14;;;;;;;9.45;2.40;;;;;;;;;;5061840;28;20050;-69
2023/12/08 04:01:40;;;;;;;5.40;2.35;;;;;;;;;;5061088;28;20025;-68
2023/12/08 04:04:10;;;;;;;6.40;2.65;;;;;;;;;;5057645;28;20481;-68
2023/12/08 04:06:36;;;;;;;7.65;2.75;;;;;;;;;;5057051;28;20027;-68
2023/12/08 04:09:02;;;;;;;7.07;2.20;;;;;;;;;;5061994;28;20314;-67
2023/12/08 04:11:28;;;;;;;5.20;1.98;;;;;;;;;;5057891;28;20585;-68
2023/12/08 04:13:54;;;;;;;8.73;2.50;;;;;;;;;;5058229;28;20396;-69
2023/12/08 04:16:20;;;;;;;10.05;2.58;;;;;;;;;;5061510;28;20392;-69
2023/12/08 04:18:47;;;;;;;7.82;2.25;;;;;;;;;;5063481;28;20421;-68
2023/12/08 04:21:17;;;;;;;4.05;2.20;;;;;;;;;;5062242;28;20012;-69
2023/12/08 04:23:44;;;;;;;8.25;2.58;;;;;;;;;;5072099;28;20028;-69
2023/12/08 04:26:12;;;;;;;5.07;2.42;;;;;;;;;;5056000;28;20024;-68
2023/12/08 04:28:39;;;;;;;10.25;2.75;;;;;;;;;;5062855;28;20029;-67
2023/12/08 04:31:05;;;;;;;6.07;2.33;;;;;;;;;;5055641;28;20574;-67
2023/12/08 04:33:31;;;;;;;5.25;2.45;;;;;;;;;;5072082;28;20033;-67
2023/12/08 04:35:57;;;;;;;8.00;2.20;;;;;;;;;;5056977;28;20040;-70
2023/12/08 04:38:23;;;;;;;11.43;2.58;;;;;;;;;;5060397;28;20032;-66
2023/12/08 04:40:50;;;;;;;7.10;2.30;;;;;;;;;;5059105;28;20033;-68
2023/12/08 04:43:16;;;;;;;6.43;2.55;;;;;;;;;;5061981;28;20681;-67
2023/12/08 04:45:42;;;;;;;3.33;2.53;;;;;;;;;;5054793;28;20501;-67
2023/12/08 04:48:09;;;;;;;14.02;3.25;;;;;;;;;;5060350;28;20028;-68
2023/12/08 04:50:35;;;;;;;19.92;3.10;;;;;;;;;;5061952;28;20040;-68
2023/12/08 04:53:01;;;;;;;13.00;2.83;;;;;;;;;;5059593;28;20189;-69
2023/12/08 04:55:27;;;;;;;10.95;3.08;;;;;;;;;;5059871;28;20033;-68
2023/12/08 04:57:53;;;;;;;8.30;2.45;;;;;;;;;;5055542;28;20070;-68
2023/12/08 05:00:20;;;;;;;10.90;2.53;;;;;;;;;;5058942;28;20028;-67
2023/12/08 05:02:47;;;;;;;4.43;2.33;;;;;;;;;;5060652;28;20328;-68
2023/12/08 05:05:13;;;;;;;8.88;3.42;;;;;;;;;;5058830;28;20024;-68
2023/12/08 05:07:40;;;;;;;5.70;2.45;;;;;;;;;;5062632;28;20032;-68
2023/12/08 05:10:06;;;;;;;9.68;2.25;;;;;;;;;;5062042;28;20032;-67
2023/12/08 05:12:32;;;;;;;13.40;2.22;;;;;;;;;;5057625;28;20378;-68
2023/12/08 05:14:58;;;;;;;11.43;2.78;;;;;;;;;;5056087;28;20042;-69
2023/12/08 05:17:26;;;;;;;8.52;2.28;;;;;;;;;;5059756;28;20484;-68
2023/12/08 05:19:52;;;;;;;11.32;2.30;;;;;;;;;;5060850;28;20028;-68
2023/12/08 05:22:18;;;;;;;7.28;2.33;;;;;;;;;;5064213;28;20029;-68
2023/12/08 05:24:44;;;;;;;4.60;2.30;;;;;;;;;;5059163;28;20032;-68
2023/12/08 05:27:11;;;;;;;9.75;3.28;;;;;;;;;;5064271;28;20074;-68
2023/12/08 05:29:37;;;;;;;8.80;2.60;;;;;;;;;;5064829;28;20017;-68
2023/12/08 05:32:03;;;;;;;6.75;2.50;;;;;;;;;;5059956;28;20024;-68
2023/12/08 05:34:30;;;;;;;13.85;3.55;;;;;;;;;;5051187;28;20499;-69
2023/12/08 05:36:56;;;;;;;14.57;3.28;;;;;;;;;;5062664;28;20565;-69
2023/12/08 05:39:22;;;;;;;13.60;2.35;;;;;;;;;;5057381;28;20062;-67
2023/12/08 05:41:48;;;;;;;10.15;3.65;;;;;;;;;;5063043;28;20504;-68
2023/12/08 05:44:16;;;;;;;14.23;3.42;;;;;;;;;;5067031;28;20523;-68
2023/12/08 05:46:42;;;;;;;9.60;2.40;;;;;;;;;;5065041;28;20354;-68
2023/12/08 05:49:08;;;;;;;9.70;2.67;;;;;;;;;;5063068;28;20561;-69
2023/12/08 05:51:35;;;;;;;6.32;2.38;;;;;;;;;;5055557;28;20028;-68
2023/12/08 05:54:01;;;;;;;8.13;2.80;;;;;;;;;;5077350;28;20036;-68
2023/12/08 05:56:27;;;;;;;10.38;2.83;;;;;;;;;;5059120;28;20033;-68
2023/12/08 05:58:53;;;;;;;13.75;3.50;;;;;;;;;;5056650;28;20042;-68
2023/12/08 06:01:21;;;;;;;9.13;2.75;;;;;;;;;;5063314;28;20321;-68
2023/12/08 06:03:47;;;;;;;14.95;3.50;;;;;;;;;;5059441;28;20009;-68
2023/12/08 06:06:14;;;;;;;4.68;2.40;;;;;;;;;;5062345;28;20485;-68
2023/12/08 06:08:40;;;;;;;6.32;3.60;;;;;;;;;;5063970;28;20035;-70
2023/12/08 06:11:06;;;;;;;8.77;2.92;;;;;;;;;;5057239;28;20573;-68
2023/12/08 06:13:33;;;;;;;7.18;2.40;;;;;;;;;;5063031;28;20036;-67
2023/12/08 06:15:59;;;;;;;3.72;1.92;;;;;;;;;;5063131;28;20117;-68
2023/12/08 06:18:25;;;;;;;6.65;2.53;;;;;;;;;;5062534;28;20033;-68
2023/12/08 06:20:52;;;;;;;9.75;2.50;;;;;;;;;;5061583;28;20468;-68
2023/12/08 06:23:18;;;;;;;14.43;3.22;;;;;;;;;;5056462;28;21578;-68
2023/12/08 06:25:44;;;;;;;7.05;2.38;;;;;;;;;;5062069;28;20025;-68
2023/12/08 06:28:10;;;;;;;4.07;2.10;;;;;;;;;;5061918;28;20101;-68
2023/12/08 06:30:36;;;;;;;7.35;2.35;;;;;;;;;;5059691;28;20432;-68
2023/12/08 06:33:03;;;;;;;10.70;2.22;;;;;;;;;;5061635;28;20151;-69
2023/12/08 06:35:29;;;;;;;5.72;2.17;;;;;;;;;;5061738;28;20032;-69
2023/12/08 06:37:55;;;;;;;6.00;2.15;;;;;;;;;;5063595;28;20029;-68
2023/12/08 06:40:21;;;;;;;10.73;2.40;;;;;;;;;;5061162;28;20120;-70
2023/12/08 06:42:47;;;;;;;6.35;2.45;;;;;;;;;;5064279;28;20511;-71
2023/12/08 06:45:13;;;;;;;9.07;2.10;;;;;;;;;;5061717;28;20032;-70
2023/12/08 06:47:39;;;;;;;13.00;2.67;;;;;;;;;;5068031;28;20032;-70
2023/12/08 06:50:06;;;;;;;9.07;2.85;;;;;;;;;;5060909;28;20050;-70
2023/12/08 06:52:32;;;;;;;4.82;2.72;;;;;;;;;;5061992;28;20024;-70
2023/12/08 06:54:58;;;;;;;8.93;2.88;;;;;;;;;;5057641;28;20526;-70
2023/12/08 06:57:25;;;;;;;8.98;2.35;;;;;;;;;;5058659;28;20502;-70
2023/12/08 06:59:51;;;;;;;5.47;2.22;;;;;;;;;;5055747;28;20029;-70
2023/12/08 07:02:17;;;;;;;8.50;2.45;;;;;;;;;;5052651;28;20130;-70
2023/12/08 07:04:43;;;;;;;4.90;2.35;;;;;;;;;;5063622;28;20145;-71
2023/12/08 07:07:09;;;;;;;6.97;2.63;;;;;;;;;;5056730;28;20513;-70
2023/12/08 07:09:35;;;;;;;8.10;2.53;;;;;;;;;;5063775;28;20131;-69
2023/12/08 07:12:01;;;;;;;7.57;2.50;;;;;;;;;;5058515;28;20024;-70
2023/12/08 07:14:28;;;;;;;10.70;2.25;;;;;;;;;;5062663;28;20384;-70
2023/12/08 07:16:54;;;;;;;10.02;2.95;;;;;;;;;;5060647;28;20028;-70
2023/12/08 07:19:20;;;;;;;9.18;2.50;;;;;;;;;;5055464;28;20186;-70
2023/12/08 07:21:46;;;;;;;13.57;3.33;;;;;;;;;;5061949;28;20627;-70
2023/12/08 07:24:13;;;;;;;7.55;2.88;;;;;;;;;;5053614;28;20058;-71
2023/12/08 07:26:40;;;;;;;5.57;2.45;;;;;;;;;;5062176;28;20028;-70
2023/12/08 07:29:06;;;;;;;4.68;2.60;;;;;;;;;;5062005;28;20288;-71
2023/12/08 07:31:32;;;;;;;18.58;3.10;;;;;;;;;;5056857;28;20108;-71
2023/12/08 07:33:58;;;;;;;11.95;3.05;;;;;;;;;;5065478;28;20767;-70
2023/12/08 07:36:24;;;;;;;15.77;3.45;;;;;;;;;;5073957;28;20033;-70
2023/12/08 07:38:50;;;;;;;7.13;2.60;;;;;;;;;;5055332;28;20031;-70
2023/12/08 07:41:17;;;;;;;9.48;2.15;;;;;;;;;;5061593;28;20366;-70
2023/12/08 07:43:43;;;;;;;8.75;3.63;;;;;;;;;;5058333;28;20028;-70
2023/12/08 07:46:09;;;;;;;5.03;2.67;;;;;;;;;;5060600;28;20102;-70
2023/12/08 07:48:35;;;;;;;11.13;3.35;;;;;;;;;;5062597;28;20362;-70
2023/12/08 07:51:01;;;;;;;6.28;2.53;;;;;;;;;;5055448;28;20717;-71
2023/12/08 07:53:27;;;;;;;7.88;2.67;;;;;;;;;;5073333;28;20370;-70
2023/12/08 07:55:54;;;;;;;10.82;2.67;;;;;;;;;;5059354;28;20032;-70
2023/12/08 07:58:20;;;;;;;8.60;3.15;;;;;;;;;;5058495;28;20033;-70
2023/12/08 08:00:47;;;;;;;8.85;2.58;;;;;;;;;;5070068;28;20426;-71
2023/12/08 08:03:14;;;;;;;4.65;2.45;;;;;;;;;;5066491;28;20069;-71
2023/12/08 08:05:40;;;;;;;8.32;3.10;;;;;;;;;;5049206;28;20032;-71
2023/12/08 08:08:06;;;;;;;7.95;2.67;;;;;;;;;;5056277;28;21370;-70
2023/12/08 08:10:32;;;;;;;12.32;2.33;;;;;;;;;;5059512;28;20035;-70
2023/12/08 08:12:58;;;;;;;15.68;2.55;;;;;;;;;;5076976;28;20025;-70
2023/12/08 08:15:25;;;;;;;11.20;3.25;;;;;;;;;;5063403;28;20062;-71
2023/12/08 08:17:51;;;;;;;9.85;4.63;;;;;;;;;;5081068;28;20062;-70
2023/12/08 08:20:17;;;;;;;11.90;2.78;;;;;;;;;;5079982;28;20026;-70
2023/12/08 08:22:43;;;;;;;10.07;3.08;;;;;;;;;;5063047;28;20124;-71
2023/12/08 08:25:10;;;;;;;7.38;2.60;;;;;;;;;;5058499;28;20052;-70
2023/12/08 08:27:37;;;;;;;7.47;2.35;;;;;;;;;;5062428;28;20031;-71
2023/12/08 08:30:04;;;;;;;13.02;2.40;;;;;;;;;;5055582;28;20412;-69
2023/12/08 08:32:30;;;;;;;7.97;2.28;;;;;;;;;;5061487;28;20024;-70
2023/12/08 08:34:56;;;;;;;9.85;2.50;;;;;;;;;;5062116;28;20035;-71
2023/12/08 08:37:22;;;;;;;6.00;2.60;;;;;;;;;;5072063;28;20462;-71
2023/12/08 08:39:49;;;;;;;4.30;3.28;;;;;;;;;;5064731;28;20033;-74
2023/12/08 08:42:16;;;;;;;9.98;2.67;;;;;;;;;;5069964;28;20017;-70
2023/12/08 08:44:43;;;;;;;7.88;2.38;;;;;;;;;;5060075;28;20140;-70
2023/12/08 08:47:11;;;;;;;6.10;2.53;;;;;;;;;;5063035;28;20025;-71
2023/12/08 08:49:37;;;;;;;7.55;2.22;;;;;;;;;;5062218;28;20082;-70
2023/12/08 08:52:03;;;;;;;7.03;2.90;;;;;;;;;;5063603;28;20829;-70
2023/12/08 08:54:29;;;;;;;5.65;2.42;;;;;;;;;;5067544;28;20024;-69
2023/12/08 08:56:56;;;;;;;7.05;2.50;;;;;;;;;;5059987;28;20020;-70
2023/12/08 08:59:22;;;;;;;13.80;2.92;;;;;;;;;;5061467;28;20660;-70
2023/12/08 09:01:48;;;;;;;4.53;2.30;;;;;;;;;;5060067;28;20082;-71
2023/12/08 09:04:14;;;;;;;12.45;2.97;;;;;;;;;;5063265;28;20051;-70
2023/12/08 09:06:40;;;;;;;9.05;2.90;;;;;;;;;;5073281;28;20657;-68
2023/12/08 09:09:09;;;;;;;10.93;3.45;;;;;;;;;;5080707;28;20028;-70
2023/12/08 09:11:36;;;;;;;6.22;3.03;;;;;;;;;;5086222;28;20047;-70
2023/12/08 09:14:02;;;;;;;3.70;2.33;;;;;;;;;;5059332;28;20037;-70
2023/12/08 09:16:29;;;;;;;7.45;3.35;;;;;;;;;;5063701;28;20113;-71
2023/12/08 09:18:55;;;;;;;5.70;2.60;;;;;;;;;;5066765;28;20060;-71
2023/12/08 09:21:21;;;;;;;10.60;2.47;;;;;;;;;;5064398;28;20054;-70
2023/12/08 09:23:48;;;;;;;7.78;2.25;;;;;;;;;;5065026;28;20062;-71
2023/12/08 09:26:14;;;;;;;10.20;3.08;;;;;;;;;;5079460;28;20024;-70
2023/12/08 09:28:40;;;;;;;6.68;2.47;;;;;;;;;;5066383;28;20025;-70
2023/12/08 09:31:07;;;;;;;7.95;2.53;;;;;;;;;;5065621;28;20060;-71
2023/12/08 09:33:33;;;;;;;13.25;2.40;;;;;;;;;;5063055;28;20028;-71
2023/12/08 09:35:59;;;;;;;9.60;2.70;;;;;;;;;;5064695;28;20029;-70
2023/12/08 09:38:25;;;;;;;10.70;2.42;;;;;;;;;;5064533;28;20031;-69
2023/12/08 09:40:52;;;;;;;14.23;2.70;;;;;;;;;;5065755;28;20021;-70
2023/12/08 09:43:30;;;;;;;9.10;2.35;;;;;;;;;;5069856;28;20202;-70
2023/12/08 09:45:56;;;;;;;5.97;2.50;;;;;;;;;;5067655;28;20029;-70
2023/12/08 09:48:24;;;;;;;9.13;3.42;;;;;;;;;;5069587;28;20536;-71
2023/12/08 09:50:51;;;;;;;8.48;2.67;;;;;;;;;;5062482;28;20041;-70
2023/12/08 09:53:18;;;;;;;10.48;2.55;;;;;;;;;;5066694;28;20024;-70
2023/12/08 09:55:47;;;;;;;11.38;2.78;;;;;;;;;;5059291;28;20147;-70
2023/12/08 09:58:15;;;;;;;11.15;2.58;;;;;;;;;;5060101;28;20037;-70
2023/12/08 10:00:42;;;;;;;10.20;2.85;;;;;;;;;;5061942;28;20408;-71
2023/12/08 10:03:08;;;;;;;8.00;2.83;;;;;;;;;;5062879;28;20671;-70
2023/12/08 10:05:35;;;;;;;13.25;3.05;;;;;;;;;;5061248;28;20476;-72
2023/12/08 10:08:02;;;;;;;7.53;2.33;;;;;;;;;;5057135;28;20025;-71
2023/12/08 10:10:30;;;;;;;6.15;2.45;;;;;;;;;;5064809;28;20028;-70
2023/12/08 10:12:58;;;;;;;10.90;2.85;;;;;;;;;;5065691;28;20028;-70
2023/12/08 10:15:25;;;;;;;8.27;2.85;;;;;;;;;;5080648;28;20082;-71
2023/12/08 10:17:52;;;;;;;6.68;2.60;;;;;;;;;;5066791;28;20435;-70
2023/12/08 10:20:19;;;;;;;10.63;2.90;;;;;;;;;;5055713;28;20059;-70
2023/12/08 10:22:50;;;;;;;5.45;2.33;;;;;;;;;;5063521;28;20055;-70
2023/12/08 10:25:17;;;;;;;5.72;2.55;;;;;;;;;;5065501;28;20412;-71
2023/12/08 10:27:48;;;;;;;5.63;2.42;;;;;;;;;;5053514;28;20032;-71
2023/12/08 10:30:15;;;;;;;6.93;2.63;;;;;;;;;;5062127;28;20062;-72
2023/12/08 10:32:42;;;;;;;11.27;3.15;;;;;;;;;;5065464;28;20029;-72
2023/12/08 10:35:12;;;;;;;9.57;2.65;;;;;;;;;;5053596;28;20055;-71
2023/12/08 10:37:39;;;;;;;9.20;3.17;;;;;;;;;;5065373;28;20407;-72
2023/12/08 10:40:06;;;;;;;5.32;2.53;;;;;;;;;;5065738;28;20099;-71
2023/12/08 10:42:33;;;;;;;12.63;2.55;;;;;;;;;;5063705;28;20032;-71
2023/12/08 10:44:59;;;;;;;6.80;2.50;;;;;;;;;;5061508;28;20044;-71
2023/12/08 10:47:28;;;;;;;8.88;2.03;;;;;;;;;;5060509;28;20029;-71
2023/12/08 10:49:55;;;;;;;15.45;2.67;;;;;;;;;;5061528;28;20016;-72
2023/12/08 10:52:22;;;;;;;7.63;2.85;;;;;;;;;;5065673;28;20024;-71
2023/12/08 10:54:50;;;;;;;9.95;2.65;;;;;;;;;;5063708;28;20526;-65
2023/12/08 10:57:17;;;;;;;11.93;2.92;;;;;;;;;;5060139;28;20054;-70
2023/12/08 10:59:44;;;;;;;10.85;2.30;;;;;;;;;;5058164;28;20478;-72
2023/12/08 11:02:17;;;;;;;2.58;1.70;;;;;;;;;;5063563;28;20021;-70
2023/12/08 11:04:44;;;;;;;6.93;2.05;;;;;;;;;;5059515;28;20295;-71
2023/12/08 11:07:13;;;;;;;8.52;2.65;;;;;;;;;;5061097;28;20459;-71
2023/12/08 11:09:40;;;;;;;6.38;2.47;;;;;;;;;;5059448;28;20477;-71
2023/12/08 11:12:07;;;;;;;6.43;2.45;;;;;;;;;;5057412;28;20028;-71
2023/12/08 11:15:06;;;;;;;5.47;2.17;;;;;;;;;;5062270;28;20027;-71
2023/12/08 11:17:38;;;;;;;5.50;2.40;;;;;;;;;;5052773;28;20123;-71
2023/12/08 11:20:06;;;;;;;5.35;2.13;;;;;;;;;;5060731;28;20428;-70
2023/12/08 11:22:34;;;;;;;5.65;1.95;;;;;;;;;;5061192;28;20521;-71
2023/12/08 11:25:05;;;;;;;5.03;2.78;;;;;;;;;;5057150;28;20520;-71
2023/12/08 11:27:36;;;;;;;8.95;3.47;;;;;;;;;;5057529;28;20040;-70
2023/12/08 11:30:09;;;;;;;11.30;2.97;;;;;;;;;;5054033;28;20033;-70
2023/12/08 11:32:58;;;;;;;9.52;2.38;;;;;;;;;;5059069;28;20033;-71
2023/12/08 11:35:24;;;;;;;3.38;2.10;;;;;;;;;;5056988;28;20116;-70
2023/12/08 11:37:50;;;;;;;3.50;2.15;;;;;;;;;;5053168;28;20041;-70
2023/12/08 11:40:18;;;;;;;6.22;2.17;;;;;;;;;;5057914;28;20662;-70
2023/12/08 11:42:46;;;;;;;9.88;2.45;;;;;;;;;;5063730;28;20021;-70
2023/12/08 11:45:13;;;;;;;9.65;3.05;;;;;;;;;;5063535;28;20064;-71
2023/12/08 11:47:39;;;;;;;5.57;1.80;;;;;;;;;;5076028;28;20033;-70
2023/12/08 11:50:08;;;;;;;3.40;2.50;;;;;;;;;;5060133;28;20975;-70
2023/12/08 11:52:36;;;;;;;4.38;2.25;;;;;;;;;;5061695;28;20036;-71
2023/12/08 11:55:12;;;;;;;4.30;2.38;;;;;;;;;;5058163;28;20035;-71
2023/12/08 11:57:47;;;;;;;5.65;2.33;;;;;;;;;;5055313;28;20400;-71
2023/12/08 12:00:17;;;;;;;6.25;3.28;;;;;;;;;;5053650;28;20025;-71
2023/12/08 12:02:44;;;;;;;4.70;1.88;;;;;;;;;;5060336;28;20519;-71
2023/12/08 12:05:11;;;;;;;4.55;2.25;;;;;;;;;;5051449;28;20023;-70
2023/12/08 12:07:38;;;;;;;4.85;2.00;;;;;;;;;;5056597;28;20017;-70
2023/12/08 12:10:06;;;;;;;6.40;2.42;;;;;;;;;;5050856;28;20052;-70
2023/12/08 12:12:32;;;;;;;2.17;1.92;;;;;;;;;;5058765;28;20060;-71
2023/12/08 12:15:02;;;;;;;6.32;2.67;;;;;;;;;;5073528;28;20045;-70
2023/12/08 12:17:29;;;;;;;8.43;3.00;;;;;;;;;;5057208;28;20029;-70
2023/12/08 12:19:55;;;;;;;3.80;2.00;;;;;;;;;;5062652;28;20035;-70
2023/12/08 12:22:22;;;;;;;6.18;2.20;;;;;;;;;;5059920;28;20076;-71
2023/12/08 12:24:48;;;;;;;3.53;2.03;;;;;;;;;;5056759;28;20212;-71
2023/12/08 12:27:15;;;;;;;3.63;2.00;;;;;;;;;;5058693;28;20025;-71
2023/12/08 12:29:43;;;;;;;9.38;2.15;;;;;;;;;;5055052;28;20048;-71
2023/12/08 12:32:10;;;;;;;6.35;2.42;;;;;;;;;;5062152;28;20024;-71
2023/12/08 12:34:37;;;;;;;5.47;1.92;;;;;;;;;;5062593;28;20357;-71
2023/12/08 12:37:04;;;;;;;10.00;3.13;;;;;;;;;;5064527;28;20025;-71
2023/12/08 12:39:31;;;;;;;9.20;2.75;;;;;;;;;;5064912;28;20111;-70
2023/12/08 12:41:58;;;;;;;9.55;2.22;;;;;;;;;;5062954;28;20060;-71
2023/12/08 12:44:38;;;;;;;6.75;2.85;;;;;;;;;;5063306;28;20569;-71
2023/12/08 12:47:04;;;;;;;10.25;3.38;;;;;;;;;;5066102;28;20058;-71
2023/12/08 12:49:30;;;;;;;7.72;2.22;;;;;;;;;;5060538;28;20119;-71
2023/12/08 12:51:56;;;;;;;7.57;2.25;;;;;;;;;;5079262;28;20028;-71
2023/12/08 12:54:37;;;;;;;6.80;1.90;;;;;;;;;;5061883;28;20033;-71
2023/12/08 12:57:04;;;;;;;6.68;2.05;;;;;;;;;;5066845;28;20040;-71
2023/12/08 12:59:32;;;;;;;8.32;2.90;;;;;;;;;;5058087;28;20393;-71
2023/12/08 13:01:59;;;;;;;4.80;2.17;;;;;;;;;;5057792;28;20020;-71
2023/12/08 13:04:28;;;;;;;6.40;2.78;;;;;;;;;;5057344;28;20032;-71
2023/12/08 13:06:55;;;;;;;4.15;2.13;;;;;;;;;;5062775;28;20028;-71
2023/12/08 13:09:30;;;;;;;5.90;2.90;;;;;;;;;;5061907;28;20033;-71
2023/12/08 13:11:58;;;;;;;7.47;2.67;;;;;;;;;;5059313;28;20066;-71
2023/12/08 13:14:25;;;;;;;5.90;2.33;;;;;;;;;;5061721;28;20036;-71
2023/12/08 13:16:52;;;;;;;10.25;2.30;;;;;;;;;;5058256;28;20044;-71
2023/12/08 13:19:19;;;;;;;7.50;2.42;;;;;;;;;;5063919;28;20115;-70
2023/12/08 13:21:45;;;;;;;3.15;2.40;;;;;;;;;;5072527;28;20029;-71
2023/12/08 13:24:11;;;;;;;4.63;2.20;;;;;;;;;;5063633;28;20910;-71
2023/12/08 13:26:37;;;;;;;10.27;2.28;;;;;;;;;;5063248;28;20143;-71
2023/12/08 13:29:04;;;;;;;8.15;2.47;;;;;;;;;;5061854;28;20044;-71
2023/12/08 13:31:30;;;;;;;8.70;2.70;;;;;;;;;;5056950;28;20111;-70
2023/12/08 13:33:56;;;;;;;13.35;2.47;;;;;;;;;;5065060;28;20120;-72
2023/12/08 13:36:23;;;;;;;7.43;2.50;;;;;;;;;;5061479;28;20025;-70
2023/12/08 13:38:49;;;;;;;5.15;2.10;;;;;;;;;;5059858;28;20033;-71
2023/12/08 13:41:15;;;;;;;5.80;2.30;;;;;;;;;;5062918;28;20138;-70
2023/12/08 13:43:42;;;;;;;6.15;2.65;;;;;;;;;;5061377;28;20103;-70
2023/12/08 13:46:08;;;;;;;20.23;4.20;;;;;;;;;;5060338;28;20143;-70
2023/12/08 13:48:34;;;;;;;6.93;2.65;;;;;;;;;;5058916;28;20099;-69
2023/12/08 13:51:01;;;;;;;8.18;2.40;;;;;;;;;;5060990;28;20025;-70
2023/12/08 13:53:29;;;;;;;8.90;2.75;;;;;;;;;;5059895;28;20052;-70
2023/12/08 13:55:55;;;;;;;10.43;2.55;;;;;;;;;;5066505;28;20468;-71
2023/12/08 13:58:24;;;;;;;5.32;2.00;;;;;;;;;;5053487;28;20029;-70
2023/12/08 14:00:51;;;;;;;8.02;2.90;;;;;;;;;;5062262;28;20550;-70
2023/12/08 14:03:17;;;;;;;7.38;2.60;;;;;;;;;;5051369;28;20111;-71
2023/12/08 14:05:44;;;;;;;13.38;2.90;;;;;;;;;;5063222;28;20462;-70
2023/12/08 14:08:10;;;;;;;6.43;2.55;;;;;;;;;;5062749;28;20039;-71
2023/12/08 14:10:37;;;;;;;6.35;2.05;;;;;;;;;;5065292;28;20047;-71
2023/12/08 14:13:04;;;;;;;9.98;2.85;;;;;;;;;;5060708;28;20112;-71
2023/12/08 14:15:31;;;;;;;8.57;2.50;;;;;;;;;;5060540;28;20036;-69
2023/12/08 14:17:58;;;;;;;5.55;2.28;;;;;;;;;;5056039;28;20060;-71
2023/12/08 14:20:24;;;;;;;5.63;2.55;;;;;;;;;;5061415;28;20032;-71
2023/12/08 14:22:51;;;;;;;6.63;2.83;;;;;;;;;;5059510;28;20047;-71
2023/12/08 14:25:17;;;;;;;6.28;2.38;;;;;;;;;;5056304;28;20063;-70
2023/12/08 14:27:43;;;;;;;5.90;2.42;;;;;;;;;;5055152;28;20029;-70
2023/12/08 14:30:10;;;;;;;7.68;3.22;;;;;;;;;;5062696;28;20036;-70
2023/12/08 14:32:38;;;;;;;4.93;2.47;;;;;;;;;;5058836;28;20437;-71
2023/12/08 14:35:04;;;;;;;9.98;2.47;;;;;;;;;;5062969;28;20311;-71
2023/12/08 14:37:31;;;;;;;6.97;2.83;;;;;;;;;;5052349;28;20083;-71